sensor_id;sensor_type;location;lat;lon;timestamp;pressure;altitude;pressure_sealevel;temperature;humidity
68654;BME280;55636;51.108;13.622;2023-04-27T00:00:10;100637.13;;;3.06;51.26
68654;BME280;55636;51.108;13.622;2023-04-27T00:01:13;100635.44;;;3.05;51.20
68654;BME280;55636;51.108;13.622;2023-04-27T00:02:16;100629.31;;;3.03;51.34
68654;BME280;55636;51.108;13.622;2023-04-27T00:03:18;100624.91;;;3.02;51.45
68654;BME280;55636;51.108;13.622;2023-04-27T00:04:21;100635.81;;;3.02;51.48
68654;BME280;55636;51.108;13.622;2023-04-27T00:05:24;100637.94;;;3.00;51.60
68654;BME280;55636;51.108;13.622;2023-04-27T00:06:27;100633.50;;;2.99;51.55
68654;BME280;55636;51.108;13.622;2023-04-27T00:07:30;100629.09;;;2.98;51.74
68654;BME280;55636;51.108;13.622;2023-04-27T00:08:32;100632.03;;;2.96;51.85
68654;BME280;55636;51.108;13.622;2023-04-27T00:09:35;100637.50;;;2.96;51.93
68654;BME280;55636;51.108;13.622;2023-04-27T00:10:37;100630.56;;;2.93;52.07
68654;BME280;55636;51.108;13.622;2023-04-27T00:11:39;100629.72;;;2.93;51.99
68654;BME280;55636;51.108;13.622;2023-04-27T00:12:42;100629.72;;;2.93;51.97
68654;BME280;55636;51.108;13.622;2023-04-27T00:13:44;100626.34;;;2.91;52.03
68654;BME280;55636;51.108;13.622;2023-04-27T00:14:47;100623.81;;;2.89;52.08
68654;BME280;55636;51.108;13.622;2023-04-27T00:15:49;100624.66;;;2.90;52.09
68654;BME280;55636;51.108;13.622;2023-04-27T00:16:51;100619.41;;;2.88;52.12
68654;BME280;55636;51.108;13.622;2023-04-27T00:17:54;100621.31;;;2.88;52.14
68654;BME280;55636;51.108;13.622;2023-04-27T00:18:56;100627.78;;;2.87;52.30
68654;BME280;55636;51.108;13.622;2023-04-27T00:19:59;100625.06;;;2.87;52.21
68654;BME280;55636;51.108;13.622;2023-04-27T00:21:01;100626.09;;;2.86;52.14
68654;BME280;55636;51.108;13.622;2023-04-27T00:22:04;100625.28;;;2.85;52.21
68654;BME280;55636;51.108;13.622;2023-04-27T00:23:07;100620.03;;;2.84;52.27
68654;BME280;55636;51.108;13.622;2023-04-27T00:24:09;100624.63;;;2.83;52.26
68654;BME280;55636;51.108;13.622;2023-04-27T00:25:12;100624.63;;;2.83;52.28
68654;BME280;55636;51.108;13.622;2023-04-27T00:26:14;100626.53;;;2.83;52.28
68654;BME280;55636;51.108;13.622;2023-04-27T00:27:19;100618.56;;;2.81;52.20
68654;BME280;55636;51.108;13.622;2023-04-27T00:28:21;100629.47;;;2.81;52.25
68654;BME280;55636;51.108;13.622;2023-04-27T00:29:24;100624.19;;;2.80;52.23
68654;BME280;55636;51.108;13.622;2023-04-27T00:30:26;100635.09;;;2.80;52.23
68654;BME280;55636;51.108;13.622;2023-04-27T00:31:28;100628.81;;;2.79;52.35
68654;BME280;55636;51.108;13.622;2023-04-27T00:32:31;100613.66;;;2.76;52.36
68654;BME280;55636;51.108;13.622;2023-04-27T00:33:33;100630.03;;;2.76;52.27
68654;BME280;55636;51.108;13.622;2023-04-27T00:34:36;100622.06;;;2.75;52.19
68654;BME280;55636;51.108;13.622;2023-04-27T00:35:39;100626.66;;;2.74;52.30
68654;BME280;55636;51.108;13.622;2023-04-27T00:36:42;100630.66;;;2.72;52.29
68654;BME280;55636;51.108;13.622;2023-04-27T00:37:44;100630.66;;;2.72;52.30
68654;BME280;55636;51.108;13.622;2023-04-27T00:38:46;100628.09;;;2.70;52.38
68654;BME280;55636;51.108;13.622;2023-04-27T00:39:49;100631.03;;;2.69;52.46
68654;BME280;55636;51.108;13.622;2023-04-27T00:40:51;100622.41;;;2.65;52.60
68654;BME280;55636;51.108;13.622;2023-04-27T00:42:01;100629.53;;;2.66;52.52
68654;BME280;55636;51.108;13.622;2023-04-27T00:43:03;100627.22;;;2.63;52.52
68654;BME280;55636;51.108;13.622;2023-04-27T00:44:07;100628.06;;;2.64;52.69
68654;BME280;55636;51.108;13.622;2023-04-27T00:45:10;100625.75;;;2.60;52.72
68654;BME280;55636;51.108;13.622;2023-04-27T00:46:13;100631.19;;;2.60;53.00
68654;BME280;55636;51.108;13.622;2023-04-27T00:47:15;100630.56;;;2.58;52.79
68654;BME280;55636;51.108;13.622;2023-04-27T00:48:19;100630.56;;;2.58;52.97
68654;BME280;55636;51.108;13.622;2023-04-27T00:49:22;100621.75;;;2.56;53.14
68654;BME280;55636;51.108;13.622;2023-04-27T00:50:28;100628.25;;;2.55;53.15
68654;BME280;55636;51.108;13.622;2023-04-27T00:51:31;100634.94;;;2.53;53.12
68654;BME280;55636;51.108;13.622;2023-04-27T00:52:35;100638.69;;;2.52;53.06
68654;BME280;55636;51.108;13.622;2023-04-27T00:53:37;100638.06;;;2.50;53.05
68654;BME280;55636;51.108;13.622;2023-04-27T00:54:40;100635.53;;;2.48;53.16
68654;BME280;55636;51.108;13.622;2023-04-27T00:55:43;100636.59;;;2.47;53.20
68654;BME280;55636;51.108;13.622;2023-04-27T00:56:48;100630.28;;;2.47;53.11
68654;BME280;55636;51.108;13.622;2023-04-27T00:57:51;100636.97;;;2.44;53.21
68654;BME280;55636;51.108;13.622;2023-04-27T00:58:53;100641.59;;;2.43;53.46
68654;BME280;55636;51.108;13.622;2023-04-27T00:59:55;100639.06;;;2.42;53.42
68654;BME280;55636;51.108;13.622;2023-04-27T01:00:58;100641.81;;;2.42;53.51
68654;BME280;55636;51.108;13.622;2023-04-27T01:02:01;100635.69;;;2.40;53.53
68654;BME280;55636;51.108;13.622;2023-04-27T01:03:06;100644.06;;;2.38;53.44
68654;BME280;55636;51.108;13.622;2023-04-27T01:04:09;100632.50;;;2.36;53.35
68654;BME280;55636;51.108;13.622;2023-04-27T01:05:12;100637.97;;;2.36;53.42
68654;BME280;55636;51.108;13.622;2023-04-27T01:06:14;100642.78;;;2.34;53.40
68654;BME280;55636;51.108;13.622;2023-04-27T01:07:18;100641.94;;;2.34;53.57
68654;BME280;55636;51.108;13.622;2023-04-27T01:08:20;100642.97;;;2.33;53.71
68654;BME280;55636;51.108;13.622;2023-04-27T01:09:22;100631.44;;;2.31;53.66
68654;BME280;55636;51.108;13.622;2023-04-27T01:10:25;100636.88;;;2.31;53.56
68654;BME280;55636;51.108;13.622;2023-04-27T01:11:28;100645.28;;;2.29;53.66
68654;BME280;55636;51.108;13.622;2023-04-27T01:12:30;100637.31;;;2.27;53.75
68654;BME280;55636;51.108;13.622;2023-04-27T01:13:32;100636.44;;;2.27;53.67
68654;BME280;55636;51.108;13.622;2023-04-27T01:14:35;100639.16;;;2.27;53.83
68654;BME280;55636;51.108;13.622;2023-04-27T01:15:37;100643.13;;;2.24;53.81
68654;BME280;55636;51.108;13.622;2023-04-27T01:16:43;100641.44;;;2.23;53.84
68654;BME280;55636;51.108;13.622;2023-04-27T01:17:47;100646.88;;;2.23;53.81
68654;BME280;55636;51.108;13.622;2023-04-27T01:18:49;100642.50;;;2.22;53.88
68654;BME280;55636;51.108;13.622;2023-04-27T01:19:52;100638.91;;;2.22;53.71
68654;BME280;55636;51.108;13.622;2023-04-27T01:20:56;100643.53;;;2.21;53.85
68654;BME280;55636;51.108;13.622;2023-04-27T01:21:59;100648.31;;;2.19;53.83
68654;BME280;55636;51.108;13.622;2023-04-27T01:23:01;100644.78;;;2.19;53.98
68654;BME280;55636;51.108;13.622;2023-04-27T01:24:05;100643.91;;;2.18;54.11
68654;BME280;55636;51.108;13.622;2023-04-27T01:25:11;100644.13;;;2.17;53.96
68654;BME280;55636;51.108;13.622;2023-04-27T01:26:14;100645.16;;;2.16;54.02
68654;BME280;55636;51.108;13.622;2023-04-27T01:27:17;100646.22;;;2.15;54.03
68654;BME280;55636;51.108;13.622;2023-04-27T01:28:19;100642.63;;;2.14;54.23
68654;BME280;55636;51.108;13.622;2023-04-27T01:29:22;100649.13;;;2.13;54.26
68654;BME280;55636;51.108;13.622;2023-04-27T01:30:24;100649.31;;;2.12;54.27
68654;BME280;55636;51.108;13.622;2023-04-27T01:31:27;100644.72;;;2.12;54.29
68654;BME280;55636;51.108;13.622;2023-04-27T01:32:29;100651.41;;;2.09;54.24
68654;BME280;55636;51.108;13.622;2023-04-27T01:33:32;100653.28;;;2.09;54.33
68654;BME280;55636;51.108;13.622;2023-04-27T01:34:34;100655.19;;;2.08;54.17
68654;BME280;55636;51.108;13.622;2023-04-27T01:35:38;100651.78;;;2.06;54.32
68654;BME280;55636;51.108;13.622;2023-04-27T01:36:40;100653.69;;;2.06;54.45
68654;BME280;55636;51.108;13.622;2023-04-27T01:37:43;100651.78;;;2.06;54.43
68654;BME280;55636;51.108;13.622;2023-04-27T01:38:45;100657.66;;;2.03;54.55
68654;BME280;55636;51.108;13.622;2023-04-27T01:39:47;100659.53;;;2.03;54.53
68654;BME280;55636;51.108;13.622;2023-04-27T01:40:49;100652.41;;;2.02;54.65
68654;BME280;55636;51.108;13.622;2023-04-27T01:41:54;100646.28;;;2.00;54.65
68654;BME280;55636;51.108;13.622;2023-04-27T01:42:59;100659.91;;;2.00;54.67
68654;BME280;55636;51.108;13.622;2023-04-27T01:44:03;100649.22;;;1.98;54.63
68654;BME280;55636;51.108;13.622;2023-04-27T01:45:06;100667.47;;;1.98;54.51
68654;BME280;55636;51.108;13.622;2023-04-27T01:46:12;100654.88;;;1.97;54.69
68654;BME280;55636;51.108;13.622;2023-04-27T01:47:15;100655.91;;;1.96;54.50
68654;BME280;55636;51.108;13.622;2023-04-27T01:48:18;100654.22;;;1.94;54.59
68654;BME280;55636;51.108;13.622;2023-04-27T01:49:20;100662.38;;;1.94;54.34
68654;BME280;55636;51.108;13.622;2023-04-27T01:50:23;100657.78;;;1.95;54.26
68654;BME280;55636;51.108;13.622;2023-04-27T01:51:25;100663.25;;;1.95;54.33
68654;BME280;55636;51.108;13.622;2023-04-27T01:52:28;100659.66;;;1.94;54.56
68654;BME280;55636;51.108;13.622;2023-04-27T01:53:31;100667.00;;;1.94;54.40
68654;BME280;55636;51.108;13.622;2023-04-27T01:54:34;100662.59;;;1.93;54.53
68654;BME280;55636;51.108;13.622;2023-04-27T01:55:36;100662.59;;;1.93;54.66
68654;BME280;55636;51.108;13.622;2023-04-27T01:56:38;100666.13;;;1.93;54.66
68654;BME280;55636;51.108;13.622;2023-04-27T01:57:41;100668.03;;;1.93;54.68
68654;BME280;55636;51.108;13.622;2023-04-27T01:58:43;100663.41;;;1.93;54.65
68654;BME280;55636;51.108;13.622;2023-04-27T01:59:45;100666.13;;;1.93;54.68
68654;BME280;55636;51.108;13.622;2023-04-27T02:00:48;100667.19;;;1.92;54.80
68654;BME280;55636;51.108;13.622;2023-04-27T02:01:50;100663.63;;;1.92;54.77
68654;BME280;55636;51.108;13.622;2023-04-27T02:02:54;100670.75;;;1.93;54.73
68654;BME280;55636;51.108;13.622;2023-04-27T02:03:58;100672.66;;;1.92;54.74
68654;BME280;55636;51.108;13.622;2023-04-27T02:05:03;100670.97;;;1.91;54.67
68654;BME280;55636;51.108;13.622;2023-04-27T02:06:06;100672.66;;;1.92;54.88
68654;BME280;55636;51.108;13.622;2023-04-27T02:07:08;100665.50;;;1.91;54.88
68654;BME280;55636;51.108;13.622;2023-04-27T02:08:11;100669.28;;;1.90;54.93
68654;BME280;55636;51.108;13.622;2023-04-27T02:09:13;100674.72;;;1.90;54.77
68654;BME280;55636;51.108;13.622;2023-04-27T02:10:16;100676.59;;;1.90;55.00
68654;BME280;55636;51.108;13.622;2023-04-27T02:11:19;100668.59;;;1.88;54.92
68654;BME280;55636;51.108;13.622;2023-04-27T02:12:24;100667.56;;;1.89;54.99
68654;BME280;55636;51.108;13.622;2023-04-27T02:13:27;100676.78;;;1.88;55.08
68654;BME280;55636;51.108;13.622;2023-04-27T02:14:30;100681.41;;;1.88;55.10
68654;BME280;55636;51.108;13.622;2023-04-27T02:15:32;100670.31;;;1.89;55.18
68654;BME280;55636;51.108;13.622;2023-04-27T02:16:34;100672.19;;;1.89;55.11
68654;BME280;55636;51.108;13.622;2023-04-27T02:17:37;100676.78;;;1.88;55.10
68654;BME280;55636;51.108;13.622;2023-04-27T02:18:40;100675.94;;;1.88;55.07
68654;BME280;55636;51.108;13.622;2023-04-27T02:19:43;100679.72;;;1.87;55.12
68654;BME280;55636;51.108;13.622;2023-04-27T02:20:46;100678.88;;;1.86;55.21
68654;BME280;55636;51.108;13.622;2023-04-27T02:21:49;100678.00;;;1.86;55.11
68654;BME280;55636;51.108;13.622;2023-04-27T02:22:51;100679.91;;;1.85;55.07
68654;BME280;55636;51.108;13.622;2023-04-27T02:23:54;100675.50;;;1.84;55.07
68654;BME280;55636;51.108;13.622;2023-04-27T02:25:01;100679.06;;;1.85;55.15
68654;BME280;55636;51.108;13.622;2023-04-27T02:26:03;100680.75;;;1.86;55.22
68654;BME280;55636;51.108;13.622;2023-04-27T02:27:06;100677.38;;;1.84;55.18
68654;BME280;55636;51.108;13.622;2023-04-27T02:28:09;100681.13;;;1.83;55.20
68654;BME280;55636;51.108;13.622;2023-04-27T02:29:12;100686.38;;;1.84;55.24
68654;BME280;55636;51.108;13.622;2023-04-27T02:30:16;100682.00;;;1.83;55.41
68654;BME280;55636;51.108;13.622;2023-04-27T02:31:19;100682.00;;;1.83;55.12
68654;BME280;55636;51.108;13.622;2023-04-27T02:32:23;100676.56;;;1.83;55.31
68654;BME280;55636;51.108;13.622;2023-04-27T02:33:25;100679.28;;;1.83;55.41
68654;BME280;55636;51.108;13.622;2023-04-27T02:34:27;100684.72;;;1.83;55.35
68654;BME280;55636;51.108;13.622;2023-04-27T02:35:30;100683.66;;;1.84;55.56
68654;BME280;55636;51.108;13.622;2023-04-27T02:36:34;100685.56;;;1.84;55.66
68654;BME280;55636;51.108;13.622;2023-04-27T02:37:36;100685.75;;;1.82;55.62
68654;BME280;55636;51.108;13.622;2023-04-27T02:38:39;100685.75;;;1.82;55.46
68654;BME280;55636;51.108;13.622;2023-04-27T02:39:44;100678.63;;;1.81;55.49
68654;BME280;55636;51.108;13.622;2023-04-27T02:40:46;100682.16;;;1.82;55.65
68654;BME280;55636;51.108;13.622;2023-04-27T02:41:53;100677.78;;;1.81;55.62
68654;BME280;55636;51.108;13.622;2023-04-27T02:42:56;100685.09;;;1.80;55.63
68654;BME280;55636;51.108;13.622;2023-04-27T02:43:58;100678.81;;;1.80;55.60
68654;BME280;55636;51.108;13.622;2023-04-27T02:45:01;100682.38;;;1.80;55.72
68654;BME280;55636;51.108;13.622;2023-04-27T02:46:03;100684.25;;;1.80;55.92
68654;BME280;55636;51.108;13.622;2023-04-27T02:47:05;100679.66;;;1.80;55.97
68654;BME280;55636;51.108;13.622;2023-04-27T02:48:08;100684.47;;;1.78;55.80
68654;BME280;55636;51.108;13.622;2023-04-27T02:49:11;100683.41;;;1.79;55.64
68654;BME280;55636;51.108;13.622;2023-04-27T02:50:16;100682.78;;;1.77;55.81
68654;BME280;55636;51.108;13.622;2023-04-27T02:51:19;100678.34;;;1.76;55.89
68654;BME280;55636;51.108;13.622;2023-04-27T02:52:21;100682.78;;;1.77;55.81
68654;BME280;55636;51.108;13.622;2023-04-27T02:53:23;100687.56;;;1.75;55.92
68654;BME280;55636;51.108;13.622;2023-04-27T02:54:26;100679.38;;;1.75;55.80
68654;BME280;55636;51.108;13.622;2023-04-27T02:55:28;100681.28;;;1.74;55.91
68654;BME280;55636;51.108;13.622;2023-04-27T02:56:30;100679.38;;;1.75;55.73
68654;BME280;55636;51.108;13.622;2023-04-27T02:57:33;100684.84;;;1.75;55.97
68654;BME280;55636;51.108;13.622;2023-04-27T02:58:35;100679.78;;;1.72;55.94
68654;BME280;55636;51.108;13.622;2023-04-27T02:59:38;100680.81;;;1.71;56.03
68654;BME280;55636;51.108;13.622;2023-04-27T03:00:40;100675.38;;;1.71;55.89
68654;BME280;55636;51.108;13.622;2023-04-27T03:01:43;100686.25;;;1.71;55.98
68654;BME280;55636;51.108;13.622;2023-04-27T03:02:45;100675.56;;;1.69;56.18
68654;BME280;55636;51.108;13.622;2023-04-27T03:03:48;100681.22;;;1.68;56.27
68654;BME280;55636;51.108;13.622;2023-04-27T03:04:51;100684.09;;;1.66;56.49
68654;BME280;55636;51.108;13.622;2023-04-27T03:05:55;100682.25;;;1.67;56.22
68654;BME280;55636;51.108;13.622;2023-04-27T03:06:58;100683.28;;;1.66;56.42
68654;BME280;55636;51.108;13.622;2023-04-27T03:08:00;100682.63;;;1.64;56.39
68654;BME280;55636;51.108;13.622;2023-04-27T03:09:02;100684.31;;;1.65;56.38
68654;BME280;55636;51.108;13.622;2023-04-27T03:10:05;100690.63;;;1.65;56.34
68654;BME280;55636;51.108;13.622;2023-04-27T03:11:08;100685.34;;;1.64;56.30
68654;BME280;55636;51.108;13.622;2023-04-27T03:12:10;100679.06;;;1.63;56.36
68654;BME280;55636;51.108;13.622;2023-04-27T03:13:13;100688.91;;;1.64;56.30
68654;BME280;55636;51.108;13.622;2023-04-27T03:14:17;100699.81;;;1.64;56.38
68654;BME280;55636;51.108;13.622;2023-04-27T03:15:20;100693.72;;;1.62;56.46
68654;BME280;55636;51.108;13.622;2023-04-27T03:16:22;100690.16;;;1.62;56.58
68654;BME280;55636;51.108;13.622;2023-04-27T03:17:25;100692.03;;;1.61;56.39
68654;BME280;55636;51.108;13.622;2023-04-27T03:18:27;100695.59;;;1.62;56.39
68654;BME280;55636;51.108;13.622;2023-04-27T03:19:29;100687.63;;;1.60;56.30
68654;BME280;55636;51.108;13.622;2023-04-27T03:20:32;100698.53;;;1.60;56.30
68654;BME280;55636;51.108;13.622;2023-04-27T03:21:34;100700.22;;;1.61;56.47
68654;BME280;55636;51.108;13.622;2023-04-27T03:22:37;100701.25;;;1.60;56.52
68654;BME280;55636;51.108;13.622;2023-04-27T03:23:39;100702.06;;;1.60;56.54
68654;BME280;55636;51.108;13.622;2023-04-27T03:24:41;100696.81;;;1.59;56.47
68654;BME280;55636;51.108;13.622;2023-04-27T03:25:44;100698.72;;;1.58;56.39
68654;BME280;55636;51.108;13.622;2023-04-27T03:26:46;100699.56;;;1.59;56.44
68654;BME280;55636;51.108;13.622;2023-04-27T03:27:48;100700.38;;;1.59;56.42
68654;BME280;55636;51.108;13.622;2023-04-27T03:28:51;100702.28;;;1.59;56.50
68654;BME280;55636;51.108;13.622;2023-04-27T03:29:54;100703.31;;;1.58;56.38
68654;BME280;55636;51.108;13.622;2023-04-27T03:30:56;100718.81;;;1.57;56.56
68654;BME280;55636;51.108;13.622;2023-04-27T03:31:58;100708.13;;;1.56;56.51
68654;BME280;55636;51.108;13.622;2023-04-27T03:33:01;100711.66;;;1.56;56.66
68654;BME280;55636;51.108;13.622;2023-04-27T03:34:05;100715.44;;;1.55;56.52
68654;BME280;55636;51.108;13.622;2023-04-27T03:35:07;100714.59;;;1.55;56.52
68654;BME280;55636;51.108;13.622;2023-04-27T03:36:10;100718.34;;;1.54;56.58
68654;BME280;55636;51.108;13.622;2023-04-27T03:37:15;100722.97;;;1.53;56.57
68654;BME280;55636;51.108;13.622;2023-04-27T03:38:18;100724.81;;;1.53;56.61
68654;BME280;55636;51.108;13.622;2023-04-27T03:39:20;100719.38;;;1.53;56.48
68654;BME280;55636;51.108;13.622;2023-04-27T03:40:23;100722.28;;;1.51;56.49
68654;BME280;55636;51.108;13.622;2023-04-27T03:41:25;100727.75;;;1.51;56.63
68654;BME280;55636;51.108;13.622;2023-04-27T03:42:27;100722.50;;;1.50;56.45
68654;BME280;55636;51.108;13.622;2023-04-27T03:43:31;100726.25;;;1.49;56.67
68654;BME280;55636;51.108;13.622;2023-04-27T03:44:33;100722.69;;;1.48;56.61
68654;BME280;55636;51.108;13.622;2023-04-27T03:45:37;100724.75;;;1.46;56.75
68654;BME280;55636;51.108;13.622;2023-04-27T03:46:40;100734.81;;;1.46;56.82
68654;BME280;55636;51.108;13.622;2023-04-27T03:47:42;100731.41;;;1.43;56.77
68654;BME280;55636;51.108;13.622;2023-04-27T03:48:44;100725.13;;;1.43;56.80
68654;BME280;55636;51.108;13.622;2023-04-27T03:49:48;100729.91;;;1.41;56.84
68654;BME280;55636;51.108;13.622;2023-04-27T03:50:50;100729.28;;;1.39;56.85
68654;BME280;55636;51.108;13.622;2023-04-27T03:51:53;100735.56;;;1.39;57.00
68654;BME280;55636;51.108;13.622;2023-04-27T03:52:55;100734.06;;;1.37;56.88
68654;BME280;55636;51.108;13.622;2023-04-27T03:53:58;100730.69;;;1.35;56.94
68654;BME280;55636;51.108;13.622;2023-04-27T03:55:02;100733.41;;;1.35;57.03
68654;BME280;55636;51.108;13.622;2023-04-27T03:56:04;100733.59;;;1.33;56.98
68654;BME280;55636;51.108;13.622;2023-04-27T03:57:07;100730.25;;;1.31;57.15
68654;BME280;55636;51.108;13.622;2023-04-27T03:58:10;100735.69;;;1.31;56.99
68654;BME280;55636;51.108;13.622;2023-04-27T03:59:27;100735.69;;;1.31;57.18
68654;BME280;55636;51.108;13.622;2023-04-27T04:00:30;100730.41;;;1.30;57.04
68654;BME280;55636;51.108;13.622;2023-04-27T04:01:32;100730.41;;;1.30;57.04
68654;BME280;55636;51.108;13.622;2023-04-27T04:02:38;100733.13;;;1.30;57.07
68654;BME280;55636;51.108;13.622;2023-04-27T04:03:41;100735.22;;;1.27;57.05
68654;BME280;55636;51.108;13.622;2023-04-27T04:04:45;100733.31;;;1.28;57.12
68654;BME280;55636;51.108;13.622;2023-04-27T04:05:48;100738.75;;;1.28;57.31
68654;BME280;55636;51.108;13.622;2023-04-27T04:06:50;100737.94;;;1.27;57.17
68654;BME280;55636;51.108;13.622;2023-04-27T04:07:52;100738.97;;;1.26;57.12
68654;BME280;55636;51.108;13.622;2023-04-27T04:08:56;100744.41;;;1.26;57.29
68654;BME280;55636;51.108;13.622;2023-04-27T04:09:59;100742.50;;;1.27;57.27
68654;BME280;55636;51.108;13.622;2023-04-27T04:11:01;100745.22;;;1.27;57.42
68654;BME280;55636;51.108;13.622;2023-04-27T04:12:04;100747.13;;;1.26;57.58
68654;BME280;55636;51.108;13.622;2023-04-27T04:13:06;100742.72;;;1.25;57.53
68654;BME280;55636;51.108;13.622;2023-04-27T04:14:10;100745.22;;;1.27;57.68
68654;BME280;55636;51.108;13.622;2023-04-27T04:15:13;100744.22;;;1.28;57.62
68654;BME280;55636;51.108;13.622;2023-04-27T04:16:16;100747.13;;;1.26;57.58
68654;BME280;55636;51.108;13.622;2023-04-27T04:17:19;100747.94;;;1.27;57.50
68654;BME280;55636;51.108;13.622;2023-04-27T04:18:21;100744.41;;;1.26;57.52
68654;BME280;55636;51.108;13.622;2023-04-27T04:19:23;100746.09;;;1.27;57.35
68654;BME280;55636;51.108;13.622;2023-04-27T04:20:25;100755.97;;;1.29;57.49
68654;BME280;55636;51.108;13.622;2023-04-27T04:21:28;100754.06;;;1.29;57.54
68654;BME280;55636;51.108;13.622;2023-04-27T04:22:33;100747.78;;;1.29;57.59
68654;BME280;55636;51.108;13.622;2023-04-27T04:23:35;100748.81;;;1.27;57.66
68654;BME280;55636;51.108;13.622;2023-04-27T04:24:38;100747.78;;;1.29;57.50
68654;BME280;55636;51.108;13.622;2023-04-27T04:25:41;100745.22;;;1.27;57.51
68654;BME280;55636;51.108;13.622;2023-04-27T04:26:44;100744.22;;;1.28;57.63
68654;BME280;55636;51.108;13.622;2023-04-27T04:27:46;100757.63;;;1.30;57.66
68654;BME280;55636;51.108;13.622;2023-04-27T04:28:49;100755.75;;;1.30;57.46
68654;BME280;55636;51.108;13.622;2023-04-27T04:29:51;100760.19;;;1.31;57.48
68654;BME280;55636;51.108;13.622;2023-04-27T04:30:54;100762.72;;;1.33;57.48
68654;BME280;55636;51.108;13.622;2023-04-27T04:31:58;100751.81;;;1.33;57.53
68654;BME280;55636;51.108;13.622;2023-04-27T04:33:00;100753.69;;;1.32;57.52
68654;BME280;55636;51.108;13.622;2023-04-27T04:34:02;100758.97;;;1.34;57.71
68654;BME280;55636;51.108;13.622;2023-04-27T04:35:05;100759.78;;;1.34;57.74
68654;BME280;55636;51.108;13.622;2023-04-27T04:36:08;100761.47;;;1.35;57.77
68654;BME280;55636;51.108;13.622;2023-04-27T04:37:12;100760.63;;;1.35;57.64
68654;BME280;55636;51.108;13.622;2023-04-27T04:38:14;100758.56;;;1.37;57.52
68654;BME280;55636;51.108;13.622;2023-04-27T04:39:17;100768.44;;;1.38;57.62
68654;BME280;55636;51.108;13.622;2023-04-27T04:40:23;100761.97;;;1.39;57.69
68654;BME280;55636;51.108;13.622;2023-04-27T04:41:25;100764.47;;;1.40;57.44
68654;BME280;55636;51.108;13.622;2023-04-27T04:42:28;100762.59;;;1.41;57.86
68654;BME280;55636;51.108;13.622;2023-04-27T04:43:30;100771.59;;;1.41;57.62
68654;BME280;55636;51.108;13.622;2023-04-27T04:44:35;100762.59;;;1.41;57.72
68654;BME280;55636;51.108;13.622;2023-04-27T04:45:38;100765.97;;;1.43;57.73
68654;BME280;55636;51.108;13.622;2023-04-27T04:46:41;100764.91;;;1.44;57.84
68654;BME280;55636;51.108;13.622;2023-04-27T04:47:43;100763.91;;;1.45;57.88
68654;BME280;55636;51.108;13.622;2023-04-27T04:48:46;100761.84;;;1.47;57.66
68654;BME280;55636;51.108;13.622;2023-04-27T04:49:48;100768.13;;;1.48;57.68
68654;BME280;55636;51.108;13.622;2023-04-27T04:50:51;100764.16;;;1.50;57.71
68654;BME280;55636;51.108;13.622;2023-04-27T04:51:53;100773.38;;;1.49;57.83
68654;BME280;55636;51.108;13.622;2023-04-27T04:52:55;100771.31;;;1.51;57.58
68654;BME280;55636;51.108;13.622;2023-04-27T04:53:59;100771.97;;;1.53;57.66
68654;BME280;55636;51.108;13.622;2023-04-27T04:55:03;100779.09;;;1.54;57.65
68654;BME280;55636;51.108;13.622;2023-04-27T04:56:08;100779.56;;;1.58;57.78
68654;BME280;55636;51.108;13.622;2023-04-27T04:57:10;100773.91;;;1.59;57.71
68654;BME280;55636;51.108;13.622;2023-04-27T04:58:12;100779.19;;;1.61;57.80
68654;BME280;55636;51.108;13.622;2023-04-27T04:59:14;100779.84;;;1.63;57.82
68654;BME280;55636;51.108;13.622;2023-04-27T05:00:17;100779.44;;;1.66;57.79
68654;BME280;55636;51.108;13.622;2023-04-27T05:01:20;100776.56;;;1.68;57.74
68654;BME280;55636;51.108;13.622;2023-04-27T05:02:23;100772.59;;;1.70;57.73
68654;BME280;55636;51.108;13.622;2023-04-27T05:03:26;100777.66;;;1.73;57.86
68654;BME280;55636;51.108;13.622;2023-04-27T05:04:30;100781.03;;;1.75;57.98
68654;BME280;55636;51.108;13.622;2023-04-27T05:05:32;100785.06;;;1.80;57.69
68654;BME280;55636;51.108;13.622;2023-04-27T05:06:35;100784.66;;;1.83;57.79
68654;BME280;55636;51.108;13.622;2023-04-27T05:07:38;100787.19;;;1.84;57.64
68654;BME280;55636;51.108;13.622;2023-04-27T05:08:40;100789.72;;;1.86;57.63
68654;BME280;55636;51.108;13.622;2023-04-27T05:09:42;100784.09;;;1.87;57.60
68654;BME280;55636;51.108;13.622;2023-04-27T05:10:51;100790.00;;;1.91;57.61
68654;BME280;55636;51.108;13.622;2023-04-27T05:11:54;100790.66;;;1.93;57.47
68654;BME280;55636;51.108;13.622;2023-04-27T05:12:56;100788.41;;;1.97;57.61
68654;BME280;55636;51.108;13.622;2023-04-27T05:13:58;100792.63;;;1.99;57.55
68654;BME280;55636;51.108;13.622;2023-04-27T05:15:01;100786.13;;;2.00;57.41
68654;BME280;55636;51.108;13.622;2023-04-27T05:16:04;100792.03;;;2.04;57.45
68654;BME280;55636;51.108;13.622;2023-04-27T05:17:08;100794.56;;;2.05;57.34
68654;BME280;55636;51.108;13.622;2023-04-27T05:18:11;100789.75;;;2.07;57.34
68654;BME280;55636;51.108;13.622;2023-04-27T05:19:13;100784.09;;;2.09;57.43
68654;BME280;55636;51.108;13.622;2023-04-27T05:20:19;100788.31;;;2.12;57.27
68654;BME280;55636;51.108;13.622;2023-04-27T05:21:21;100786.25;;;2.14;57.14
68654;BME280;55636;51.108;13.622;2023-04-27T05:22:25;100786.06;;;2.15;57.17
68654;BME280;55636;51.108;13.622;2023-04-27T05:23:27;100781.06;;;2.19;57.14
68654;BME280;55636;51.108;13.622;2023-04-27T05:24:30;100786.31;;;2.20;57.22
68654;BME280;55636;51.108;13.622;2023-04-27T05:25:33;100782.16;;;2.24;57.10
68654;BME280;55636;51.108;13.622;2023-04-27T05:26:35;100792.03;;;2.25;57.15
68654;BME280;55636;51.108;13.622;2023-04-27T05:27:38;100780.94;;;2.27;57.04
68654;BME280;55636;51.108;13.622;2023-04-27T05:28:40;100779.91;;;2.28;57.11